sensor_id;sensor_type;location;lat;lon;timestamp;temperature;humidity
51035;DHT22;37062;52.546;13.230;2022-10-18T00:00:14;19.20;99.90
51035;DHT22;37062;52.546;13.230;2022-10-18T00:02:42;19.10;99.90
51035;DHT22;37062;52.546;13.230;2022-10-18T00:05:09;19.10;99.90
51035;DHT22;37062;52.546;13.230;2022-10-18T00:07:37;19.20;99.90
51035;DHT22;37062;52.546;13.230;2022-10-18T00:10:06;19.20;99.90
51035;DHT22;37062;52.546;13.230;2022-10-18T00:12:35;19.20;99.90
51035;DHT22;37062;52.546;13.230;2022-10-18T00:15:04;19.30;99.90
51035;DHT22;37062;52.546;13.230;2022-10-18T00:17:33;19.20;99.90
51035;DHT22;37062;52.546;13.230;2022-10-18T00:20:01;19.20;99.90
51035;DHT22;37062;52.546;13.230;2022-10-18T00:22:28;19.10;99.90
51035;DHT22;37062;52.546;13.230;2022-10-18T00:24:56;18.90;99.90
51035;DHT22;37062;52.546;13.230;2022-10-18T00:27:24;18.90;99.90
51035;DHT22;37062;52.546;13.230;2022-10-18T00:29:52;18.90;99.90
51035;DHT22;37062;52.546;13.230;2022-10-18T00:32:19;18.90;99.90
51035;DHT22;37062;52.546;13.230;2022-10-18T00:34:47;18.90;99.90
51035;DHT22;37062;52.546;13.230;2022-10-18T00:37:15;18.90;99.90
51035;DHT22;37062;52.546;13.230;2022-10-18T00:39:42;18.90;99.90
51035;DHT22;37062;52.546;13.230;2022-10-18T00:42:12;19.00;99.90
51035;DHT22;37062;52.546;13.230;2022-10-18T00:45:05;19.00;99.90
51035;DHT22;37062;52.546;13.230;2022-10-18T00:47:33;18.90;99.90
51035;DHT22;37062;52.546;13.230;2022-10-18T00:50:05;18.90;99.90
51035;DHT22;37062;52.546;13.230;2022-10-18T00:52:37;18.90;99.90
51035;DHT22;37062;52.546;13.230;2022-10-18T00:55:06;18.90;99.90
51035;DHT22;37062;52.546;13.230;2022-10-18T00:57:35;19.00;99.90
51035;DHT22;37062;52.546;13.230;2022-10-18T01:00:05;19.00;99.90
51035;DHT22;37062;52.546;13.230;2022-10-18T01:02:35;19.00;99.90
51035;DHT22;37062;52.546;13.230;2022-10-18T01:05:04;19.00;99.90
51035;DHT22;37062;52.546;13.230;2022-10-18T01:10:41;19.10;99.90
51035;DHT22;37062;52.546;13.230;2022-10-18T01:13:22;19.10;99.90
51035;DHT22;37062;52.546;13.230;2022-10-18T01:15:56;19.10;99.90
51035;DHT22;37062;52.546;13.230;2022-10-18T01:18:28;19.00;99.90
51035;DHT22;37062;52.546;13.230;2022-10-18T01:21:07;19.00;99.90
51035;DHT22;37062;52.546;13.230;2022-10-18T01:23:51;19.00;99.90
51035;DHT22;37062;52.546;13.230;2022-10-18T01:26:34;19.00;99.90
51035;DHT22;37062;52.546;13.230;2022-10-18T01:29:24;19.00;99.90
51035;DHT22;37062;52.546;13.230;2022-10-18T01:31:59;19.00;99.90
51035;DHT22;37062;52.546;13.230;2022-10-18T01:34:31;19.00;99.90
51035;DHT22;37062;52.546;13.230;2022-10-18T01:37:01;19.10;99.90
51035;DHT22;37062;52.546;13.230;2022-10-18T01:39:35;19.10;99.90
51035;DHT22;37062;52.546;13.230;2022-10-18T01:42:05;19.10;99.90
51035;DHT22;37062;52.546;13.230;2022-10-18T01:44:34;19.10;99.90
51035;DHT22;37062;52.546;13.230;2022-10-18T01:47:06;19.10;99.90
51035;DHT22;37062;52.546;13.230;2022-10-18T01:49:33;19.10;99.90
51035;DHT22;37062;52.546;13.230;2022-10-18T01:52:01;19.10;99.90
51035;DHT22;37062;52.546;13.230;2022-10-18T01:54:32;19.00;99.90
51035;DHT22;37062;52.546;13.230;2022-10-18T01:57:03;19.10;99.90
51035;DHT22;37062;52.546;13.230;2022-10-18T01:59:49;19.10;99.90
51035;DHT22;37062;52.546;13.230;2022-10-18T02:02:29;19.10;99.90
51035;DHT22;37062;52.546;13.230;2022-10-18T02:05:11;19.10;99.90
51035;DHT22;37062;52.546;13.230;2022-10-18T02:07:43;19.10;99.90
51035;DHT22;37062;52.546;13.230;2022-10-18T02:10:18;19.10;99.90
51035;DHT22;37062;52.546;13.230;2022-10-18T02:12:48;19.10;99.90
51035;DHT22;37062;52.546;13.230;2022-10-18T02:15:18;19.00;99.90
51035;DHT22;37062;52.546;13.230;2022-10-18T02:17:48;19.00;99.90
51035;DHT22;37062;52.546;13.230;2022-10-18T02:20:19;19.00;99.90
51035;DHT22;37062;52.546;13.230;2022-10-18T02:22:49;19.00;99.90
51035;DHT22;37062;52.546;13.230;2022-10-18T02:25:22;19.00;99.90
51035;DHT22;37062;52.546;13.230;2022-10-18T02:27:53;19.00;99.90
51035;DHT22;37062;52.546;13.230;2022-10-18T02:30:24;19.00;99.90
51035;DHT22;37062;52.546;13.230;2022-10-18T02:32:57;19.00;99.90
51035;DHT22;37062;52.546;13.230;2022-10-18T02:35:29;19.00;99.90
51035;DHT22;37062;52.546;13.230;2022-10-18T02:37:58;19.00;99.90
51035;DHT22;37062;52.546;13.230;2022-10-18T02:40:26;19.00;99.90
51035;DHT22;37062;52.546;13.230;2022-10-18T02:42:55;19.00;99.90
51035;DHT22;37062;52.546;13.230;2022-10-18T02:45:23;19.00;99.90
51035;DHT22;37062;52.546;13.230;2022-10-18T02:47:52;19.00;99.90
51035;DHT22;37062;52.546;13.230;2022-10-18T02:50:20;19.00;99.90
51035;DHT22;37062;52.546;13.230;2022-10-18T02:52:48;19.00;99.90
51035;DHT22;37062;52.546;13.230;2022-10-18T02:55:15;19.00;99.90
51035;DHT22;37062;52.546;13.230;2022-10-18T02:57:43;19.00;99.90
51035;DHT22;37062;52.546;13.230;2022-10-18T03:00:11;19.00;99.90
51035;DHT22;37062;52.546;13.230;2022-10-18T03:02:39;19.00;99.90
51035;DHT22;37062;52.546;13.230;2022-10-18T03:05:07;19.00;99.90
51035;DHT22;37062;52.546;13.230;2022-10-18T03:07:35;19.00;99.90
51035;DHT22;37062;52.546;13.230;2022-10-18T03:10:03;19.00;99.90
51035;DHT22;37062;52.546;13.230;2022-10-18T03:12:31;19.00;99.90
51035;DHT22;37062;52.546;13.230;2022-10-18T03:14:58;19.00;99.90
51035;DHT22;37062;52.546;13.230;2022-10-18T03:17:26;18.90;99.90
51035;DHT22;37062;52.546;13.230;2022-10-18T03:19:53;18.90;99.90
51035;DHT22;37062;52.546;13.230;2022-10-18T03:22:21;18.90;99.90
51035;DHT22;37062;52.546;13.230;2022-10-18T03:24:51;18.90;99.90
51035;DHT22;37062;52.546;13.230;2022-10-18T03:27:19;18.80;99.90
51035;DHT22;37062;52.546;13.230;2022-10-18T03:29:46;18.80;99.90
51035;DHT22;37062;52.546;13.230;2022-10-18T03:32:14;18.80;99.90
51035;DHT22;37062;52.546;13.230;2022-10-18T03:34:41;18.90;99.90
51035;DHT22;37062;52.546;13.230;2022-10-18T03:37:09;18.80;99.90
51035;DHT22;37062;52.546;13.230;2022-10-18T03:39:36;18.80;99.90
51035;DHT22;37062;52.546;13.230;2022-10-18T03:42:05;18.80;99.90
51035;DHT22;37062;52.546;13.230;2022-10-18T03:44:32;18.80;99.90
51035;DHT22;37062;52.546;13.230;2022-10-18T03:46:59;18.80;99.90
51035;DHT22;37062;52.546;13.230;2022-10-18T03:49:27;18.70;99.90
51035;DHT22;37062;52.546;13.230;2022-10-18T03:51:54;18.70;99.90
51035;DHT22;37062;52.546;13.230;2022-10-18T03:54:22;18.70;99.90
51035;DHT22;37062;52.546;13.230;2022-10-18T03:56:49;18.70;99.90
51035;DHT22;37062;52.546;13.230;2022-10-18T03:59:18;18.60;99.90
51035;DHT22;37062;52.546;13.230;2022-10-18T04:01:45;18.60;99.90
51035;DHT22;37062;52.546;13.230;2022-10-18T04:04:13;18.60;99.90
51035;DHT22;37062;52.546;13.230;2022-10-18T04:06:40;18.60;99.90
51035;DHT22;37062;52.546;13.230;2022-10-18T04:09:08;18.60;99.90
51035;DHT22;37062;52.546;13.230;2022-10-18T04:11:37;18.60;99.90
51035;DHT22;37062;52.546;13.230;2022-10-18T04:14:04;18.60;99.90
51035;DHT22;37062;52.546;13.230;2022-10-18T04:16:33;18.50;99.90
51035;DHT22;37062;52.546;13.230;2022-10-18T04:19:00;18.50;99.90
51035;DHT22;37062;52.546;13.230;2022-10-18T04:21:28;18.40;99.90
51035;DHT22;37062;52.546;13.230;2022-10-18T04:23:55;18.50;99.90
51035;DHT22;37062;52.546;13.230;2022-10-18T04:26:23;18.40;99.90
51035;DHT22;37062;52.546;13.230;2022-10-18T04:28:50;18.30;99.90
51035;DHT22;37062;52.546;13.230;2022-10-18T04:31:18;18.30;99.90
51035;DHT22;37062;52.546;13.230;2022-10-18T04:33:46;18.30;99.90
51035;DHT22;37062;52.546;13.230;2022-10-18T04:36:14;18.30;99.90
51035;DHT22;37062;52.546;13.230;2022-10-18T04:38:41;18.40;99.90
51035;DHT22;37062;52.546;13.230;2022-10-18T04:41:08;18.40;99.90
51035;DHT22;37062;52.546;13.230;2022-10-18T04:43:36;18.30;99.90
51035;DHT22;37062;52.546;13.230;2022-10-18T04:46:03;18.30;99.90
51035;DHT22;37062;52.546;13.230;2022-10-18T04:48:31;18.20;99.90
51035;DHT22;37062;52.546;13.230;2022-10-18T04:51:00;18.10;99.90
51035;DHT22;37062;52.546;13.230;2022-10-18T04:53:27;18.00;99.90
51035;DHT22;37062;52.546;13.230;2022-10-18T04:55:55;18.00;99.90
51035;DHT22;37062;52.546;13.230;2022-10-18T04:58:22;17.90;99.90
51035;DHT22;37062;52.546;13.230;2022-10-18T05:00:50;17.90;99.90
51035;DHT22;37062;52.546;13.230;2022-10-18T05:03:17;17.90;99.90
51035;DHT22;37062;52.546;13.230;2022-10-18T05:05:45;17.90;99.90
51035;DHT22;37062;52.546;13.230;2022-10-18T05:08:14;17.90;99.90
51035;DHT22;37062;52.546;13.230;2022-10-18T05:10:41;18.00;99.90
51035;DHT22;37062;52.546;13.230;2022-10-18T05:13:08;18.00;99.90
51035;DHT22;37062;52.546;13.230;2022-10-18T05:15:36;17.90;99.90
51035;DHT22;37062;52.546;13.230;2022-10-18T05:18:03;17.90;99.90
51035;DHT22;37062;52.546;13.230;2022-10-18T05:20:31;17.80;99.90
51035;DHT22;37062;52.546;13.230;2022-10-18T05:22:58;17.80;99.90
51035;DHT22;37062;52.546;13.230;2022-10-18T05:25:27;17.70;99.90
51035;DHT22;37062;52.546;13.230;2022-10-18T05:27:54;17.70;99.90
51035;DHT22;37062;52.546;13.230;2022-10-18T05:30:22;17.70;99.90
51035;DHT22;37062;52.546;13.230;2022-10-18T05:32:51;17.60;99.90
51035;DHT22;37062;52.546;13.230;2022-10-18T05:35:19;17.70;99.90
51035;DHT22;37062;52.546;13.230;2022-10-18T05:37:46;17.60;99.90
51035;DHT22;37062;52.546;13.230;2022-10-18T05:40:13;17.60;99.90
51035;DHT22;37062;52.546;13.230;2022-10-18T05:42:43;17.70;99.90
51035;DHT22;37062;52.546;13.230;2022-10-18T05:45:10;17.60;99.90
51035;DHT22;37062;52.546;13.230;2022-10-18T05:47:37;17.60;99.90
51035;DHT22;37062;52.546;13.230;2022-10-18T05:50:05;17.60;99.90
51035;DHT22;37062;52.546;13.230;2022-10-18T05:52:32;17.60;99.90
51035;DHT22;37062;52.546;13.230;2022-10-18T05:55:00;17.60;99.90
51035;DHT22;37062;52.546;13.230;2022-10-18T05:57:27;17.50;99.90
51035;DHT22;37062;52.546;13.230;2022-10-18T05:59:56;17.60;99.90
51035;DHT22;37062;52.546;13.230;2022-10-18T06:02:24;17.60;99.90
51035;DHT22;37062;52.546;13.230;2022-10-18T06:04:51;17.50;99.90
51035;DHT22;37062;52.546;13.230;2022-10-18T06:07:18;17.50;99.90
51035;DHT22;37062;52.546;13.230;2022-10-18T06:09:46;17.50;99.90
51035;DHT22;37062;52.546;13.230;2022-10-18T06:12:13;17.50;99.90
51035;DHT22;37062;52.546;13.230;2022-10-18T06:14:42;17.60;99.90
51035;DHT22;37062;52.546;13.230;2022-10-18T06:17:11;17.60;99.90
51035;DHT22;37062;52.546;13.230;2022-10-18T06:19:38;17.60;99.90
51035;DHT22;37062;52.546;13.230;2022-10-18T06:22:05;17.50;99.90
51035;DHT22;37062;52.546;13.230;2022-10-18T06:24:33;17.50;99.90
51035;DHT22;37062;52.546;13.230;2022-10-18T06:27:00;17.60;99.90
51035;DHT22;37062;52.546;13.230;2022-10-18T06:29:29;17.50;99.90
51035;DHT22;37062;52.546;13.230;2022-10-18T06:31:56;17.50;99.90
51035;DHT22;37062;52.546;13.230;2022-10-18T06:34:25;17.50;99.90
51035;DHT22;37062;52.546;13.230;2022-10-18T06:36:53;17.60;99.90
51035;DHT22;37062;52.546;13.230;2022-10-18T06:39:20;17.50;99.90
51035;DHT22;37062;52.546;13.230;2022-10-18T06:41:47;17.60;99.90
51035;DHT22;37062;52.546;13.230;2022-10-18T06:44:19;17.60;99.90
51035;DHT22;37062;52.546;13.230;2022-10-18T06:46:48;17.60;99.90
51035;DHT22;37062;52.546;13.230;2022-10-18T06:49:15;17.60;99.90
51035;DHT22;37062;52.546;13.230;2022-10-18T06:51:44;17.60;99.90
51035;DHT22;37062;52.546;13.230;2022-10-18T06:54:11;17.60;99.90
51035;DHT22;37062;52.546;13.230;2022-10-18T06:56:39;17.60;99.90
51035;DHT22;37062;52.546;13.230;2022-10-18T06:59:06;17.60;99.90
51035;DHT22;37062;52.546;13.230;2022-10-18T07:01:34;17.70;99.90
51035;DHT22;37062;52.546;13.230;2022-10-18T07:04:01;17.70;99.90
51035;DHT22;37062;52.546;13.230;2022-10-18T07:06:29;17.70;99.90
51035;DHT22;37062;52.546;13.230;2022-10-18T07:08:57;17.70;99.90
51035;DHT22;37062;52.546;13.230;2022-10-18T07:11:26;17.70;99.90
51035;DHT22;37062;52.546;13.230;2022-10-18T07:13:57;17.80;99.90
51035;DHT22;37062;52.546;13.230;2022-10-18T07:16:28;17.80;99.90
51035;DHT22;37062;52.546;13.230;2022-10-18T07:18:55;17.90;99.90
51035;DHT22;37062;52.546;13.230;2022-10-18T07:21:25;17.80;99.90
51035;DHT22;37062;52.546;13.230;2022-10-18T07:23:53;17.80;99.90
51035;DHT22;37062;52.546;13.230;2022-10-18T07:26:23;17.80;99.90
51035;DHT22;37062;52.546;13.230;2022-10-18T07:28:53;17.80;99.90
51035;DHT22;37062;52.546;13.230;2022-10-18T07:31:24;17.80;99.90
51035;DHT22;37062;52.546;13.230;2022-10-18T07:33:52;17.80;99.90
51035;DHT22;37062;52.546;13.230;2022-10-18T07:36:20;17.80;99.90
51035;DHT22;37062;52.546;13.230;2022-10-18T07:38:47;17.90;99.90
51035;DHT22;37062;52.546;13.230;2022-10-18T07:41:15;18.00;99.90
51035;DHT22;37062;52.546;13.230;2022-10-18T07:43:46;18.00;99.90
51035;DHT22;37062;52.546;13.230;2022-10-18T07:46:14;18.00;99.90
51035;DHT22;37062;52.546;13.230;2022-10-18T07:48:42;17.90;99.90
51035;DHT22;37062;52.546;13.230;2022-10-18T07:51:10;17.90;99.90
51035;DHT22;37062;52.546;13.230;2022-10-18T07:53:38;17.80;99.90
51035;DHT22;37062;52.546;13.230;2022-10-18T07:56:07;17.80;99.90
51035;DHT22;37062;52.546;13.230;2022-10-18T07:58:36;17.80;99.90
51035;DHT22;37062;52.546;13.230;2022-10-18T08:01:07;17.80;99.90
51035;DHT22;37062;52.546;13.230;2022-10-18T08:03:35;17.70;99.90
51035;DHT22;37062;52.546;13.230;2022-10-18T08:06:04;17.70;99.90
51035;DHT22;37062;52.546;13.230;2022-10-18T08:08:35;17.70;99.90
51035;DHT22;37062;52.546;13.230;2022-10-18T08:11:04;17.70;99.90
51035;DHT22;37062;52.546;13.230;2022-10-18T08:13:31;17.70;99.90
51035;DHT22;37062;52.546;13.230;2022-10-18T08:15:59;17.70;99.90
51035;DHT22;37062;52.546;13.230;2022-10-18T08:18:29;17.70;99.90
51035;DHT22;37062;52.546;13.230;2022-10-18T08:20:58;17.70;99.90
51035;DHT22;37062;52.546;13.230;2022-10-18T08:23:25;17.70;99.90
51035;DHT22;37062;52.546;13.230;2022-10-18T08:25:53;17.60;99.90
51035;DHT22;37062;52.546;13.230;2022-10-18T08:28:21;17.60;99.90
51035;DHT22;37062;52.546;13.230;2022-10-18T08:30:48;17.70;99.90
51035;DHT22;37062;52.546;13.230;2022-10-18T08:33:15;17.70;99.90
51035;DHT22;37062;52.546;13.230;2022-10-18T08:35:53;17.70;99.90
51035;DHT22;37062;52.546;13.230;2022-10-18T08:38:21;17.70;99.90
51035;DHT22;37062;52.546;13.230;2022-10-18T08:40:48;17.70;99.90
51035;DHT22;37062;52.546;13.230;2022-10-18T08:43:23;17.70;99.90
51035;DHT22;37062;52.546;13.230;2022-10-18T08:45:53;17.70;99.90
51035;DHT22;37062;52.546;13.230;2022-10-18T08:48:24;17.70;99.90
51035;DHT22;37062;52.546;13.230;2022-10-18T08:50:57;17.70;99.90
51035;DHT22;37062;52.546;13.230;2022-10-18T08:53:27;17.70;99.90
51035;DHT22;37062;52.546;13.230;2022-10-18T08:56:02;17.70;99.90
51035;DHT22;37062;52.546;13.230;2022-10-18T08:58:31;17.70;99.90
51035;DHT22;37062;52.546;13.230;2022-10-18T09:01:07;17.70;99.90
51035;DHT22;37062;52.546;13.230;2022-10-18T09:03:59;17.60;99.90
51035;DHT22;37062;52.546;13.230;2022-10-18T09:06:34;17.60;99.90
51035;DHT22;37062;52.546;13.230;2022-10-18T09:09:24;17.70;99.90
51035;DHT22;37062;52.546;13.230;2022-10-18T09:12:05;17.70;99.90
51035;DHT22;37062;52.546;13.230;2022-10-18T09:14:57;17.70;99.90
51035;DHT22;37062;52.546;13.230;2022-10-18T09:17:34;17.70;99.90
51035;DHT22;37062;52.546;13.230;2022-10-18T09:20:19;17.60;99.90
51035;DHT22;37062;52.546;13.230;2022-10-18T09:22:52;17.60;99.90
51035;DHT22;37062;52.546;13.230;2022-10-18T09:25:21;17.60;99.90
51035;DHT22;37062;52.546;13.230;2022-10-18T09:27:55;17.60;99.90
51035;DHT22;37062;52.546;13.230;2022-10-18T09:30:41;17.70;99.90
51035;DHT22;37062;52.546;13.230;2022-10-18T09:33:28;17.70;99.90
51035;DHT22;37062;52.546;13.230;2022-10-18T09:36:01;17.70;99.90
51035;DHT22;37062;52.546;13.230;2022-10-18T09:38:33;17.80;99.90
51035;DHT22;37062;52.546;13.230;2022-10-18T09:41:07;17.80;99.90
51035;DHT22;37062;52.546;13.230;2022-10-18T09:43:45;17.80;99.90
51035;DHT22;37062;52.546;13.230;2022-10-18T09:46:14;17.80;99.90
51035;DHT22;37062;52.546;13.230;2022-10-18T09:48:45;17.80;99.90
51035;DHT22;37062;52.546;13.230;2022-10-18T09:51:18;17.70;99.90
51035;DHT22;37062;52.546;13.230;2022-10-18T09:56:41;17.70;99.90
51035;DHT22;37062;52.546;13.230;2022-10-18T09:59:27;17.70;99.90
51035;DHT22;37062;52.546;13.230;2022-10-18T10:01:56;17.70;99.90
51035;DHT22;37062;52.546;13.230;2022-10-18T10:04:23;17.80;99.90
51035;DHT22;37062;52.546;13.230;2022-10-18T10:06:52;17.80;99.90
51035;DHT22;37062;52.546;13.230;2022-10-18T10:09:26;17.80;99.90
51035;DHT22;37062;52.546;13.230;2022-10-18T10:11:55;17.70;99.90
51035;DHT22;37062;52.546;13.230;2022-10-18T10:14:23;17.60;99.90
51035;DHT22;37062;52.546;13.230;2022-10-18T10:16:54;17.60;99.90
51035;DHT22;37062;52.546;13.230;2022-10-18T10:19:27;17.70;99.90
51035;DHT22;37062;52.546;13.230;2022-10-18T10:21:59;17.70;99.90
51035;DHT22;37062;52.546;13.230;2022-10-18T10:24:34;17.70;99.90
51035;DHT22;37062;52.546;13.230;2022-10-18T10:27:05;17.70;99.90
51035;DHT22;37062;52.546;13.230;2022-10-18T10:29:50;17.70;99.90
51035;DHT22;37062;52.546;13.230;2022-10-18T10:32:21;17.80;99.90
51035;DHT22;37062;52.546;13.230;2022-10-18T10:34:48;17.70;99.90
51035;DHT22;37062;52.546;13.230;2022-10-18T10:37:31;17.70;99.90
51035;DHT22;37062;52.546;13.230;2022-10-18T10:40:21;17.80;99.90
51035;DHT22;37062;52.546;13.230;2022-10-18T10:42:59;17.70;99.90
51035;DHT22;37062;52.546;13.230;2022-10-18T10:45:29;17.70;99.90
51035;DHT22;37062;52.546;13.230;2022-10-18T10:48:06;17.80;99.90
51035;DHT22;37062;52.546;13.230;2022-10-18T10:50:48;17.80;99.90
51035;DHT22;37062;52.546;13.230;2022-10-18T10:53:38;17.70;99.90
51035;DHT22;37062;52.546;13.230;2022-10-18T10:56:15;17.80;99.90
51035;DHT22;37062;52.546;13.230;2022-10-18T10:58:43;17.80;99.90
51035;DHT22;37062;52.546;13.230;2022-10-18T11:01:20;17.80;99.90
51035;DHT22;37062;52.546;13.230;2022-10-18T11:03:50;17.80;99.90
51035;DHT22;37062;52.546;13.230;2022-10-18T11:06:42;17.90;99.90
51035;DHT22;37062;52.546;13.230;2022-10-18T11:09:35;17.90;99.90
51035;DHT22;37062;52.546;13.230;2022-10-18T11:12:16;17.90;99.90
51035;DHT22;37062;52.546;13.230;2022-10-18T11:14:47;17.90;99.90
51035;DHT22;37062;52.546;13.230;2022-10-18T11:17:24;18.00;99.90
51035;DHT22;37062;52.546;13.230;2022-10-18T11:23:01;18.00;99.90
51035;DHT22;37062;52.546;13.230;2022-10-18T11:25:54;18.00;99.90
51035;DHT22;37062;52.546;13.230;2022-10-18T11:28:36;17.90;99.90
51035;DHT22;37062;52.546;13.230;2022-10-18T11:31:15;17.90;99.90
51035;DHT22;37062;52.546;13.230;2022-10-18T11:33:58;17.90;99.90
51035;DHT22;37062;52.546;13.230;2022-10-18T11:36:32;17.90;99.90
51035;DHT22;37062;52.546;13.230;2022-10-18T11:39:06;17.90;99.90
51035;DHT22;37062;52.546;13.230;2022-10-18T11:41:37;17.90;99.90
51035;DHT22;37062;52.546;13.230;2022-10-18T11:44:13;18.00;99.90
51035;DHT22;37062;52.546;13.230;2022-10-18T11:46:50;18.10;99.90
51035;DHT22;37062;52.546;13.230;2022-10-18T11:49:45;18.10;99.90
51035;DHT22;37062;52.546;13.230;2022-10-18T11:52:22;18.20;99.90
51035;DHT22;37062;52.546;13.230;2022-10-18T11:55:12;18.30;99.90
51035;DHT22;37062;52.546;13.230;2022-10-18T11:57:49;18.30;99.90
51035;DHT22;37062;52.546;13.230;2022-10-18T12:00:42;18.30;99.90
51035;DHT22;37062;52.546;13.230;2022-10-18T12:03:18;18.40;99.90
51035;DHT22;37062;52.546;13.230;2022-10-18T12:05:48;18.40;99.90
51035;DHT22;37062;52.546;13.230;2022-10-18T12:08:19;18.40;99.90
51035;DHT22;37062;52.546;13.230;2022-10-18T12:10:50;18.30;99.90
51035;DHT22;37062;52.546;13.230;2022-10-18T12:13:22;18.30;99.90
51035;DHT22;37062;52.546;13.230;2022-10-18T12:15:53;18.30;99.90
51035;DHT22;37062;52.546;13.230;2022-10-18T12:18:23;18.20;99.90
51035;DHT22;37062;52.546;13.230;2022-10-18T12:20:53;18.20;99.90
51035;DHT22;37062;52.546;13.230;2022-10-18T12:23:33;18.20;99.90
51035;DHT22;37062;52.546;13.230;2022-10-18T12:26:03;18.20;99.90
51035;DHT22;37062;52.546;13.230;2022-10-18T12:28:40;18.20;99.90
51035;DHT22;37062;52.546;13.230;2022-10-18T12:31:19;18.30;99.90
51035;DHT22;37062;52.546;13.230;2022-10-18T12:33:49;18.50;99.90
51035;DHT22;37062;52.546;13.230;2022-10-18T12:36:42;18.60;99.90
51035;DHT22;37062;52.546;13.230;2022-10-18T12:39:17;18.70;99.90
51035;DHT22;37062;52.546;13.230;2022-10-18T12:41:47;18.70;99.90
51035;DHT22;37062;52.546;13.230;2022-10-18T12:44:18;18.70;99.90
51035;DHT22;37062;52.546;13.230;2022-10-18T12:46:49;18.70;99.90
51035;DHT22;37062;52.546;13.230;2022-10-18T12:49:22;18.80;99.90
51035;DHT22;37062;52.546;13.230;2022-10-18T12:51:52;18.80;99.90
51035;DHT22;37062;52.546;13.230;2022-10-18T12:54:24;18.90;99.90
51035;DHT22;37062;52.546;13.230;2022-10-18T12:56:52;18.80;99.90
51035;DHT22;37062;52.546;13.230;2022-10-18T12:59:49;18.80;99.90
51035;DHT22;37062;52.546;13.230;2022-10-18T13:02:25;19.00;99.90
51035;DHT22;37062;52.546;13.230;2022-10-18T13:04:53;19.00;99.90
51035;DHT22;37062;52.546;13.230;2022-10-18T13:07:39;19.00;99.90
51035;DHT22;37062;52.546;13.230;2022-10-18T13:10:38;19.00;99.90
51035;DHT22;37062;52.546;13.230;2022-10-18T13:13:27;19.00;99.90
51035;DHT22;37062;52.546;13.230;2022-10-18T13:16:02;19.00;99.90
51035;DHT22;37062;52.546;13.230;2022-10-18T13:18:43;19.00;99.90
51035;DHT22;37062;52.546;13.230;2022-10-18T13:21:18;19.00;99.90
51035;DHT22;37062;52.546;13.230;2022-10-18T13:24:11;19.10;99.90
51035;DHT22;37062;52.546;13.230;2022-10-18T13:26:49;19.10;99.90
51035;DHT22;37062;52.546;13.230;2022-10-18T13:29:54;19.10;99.90
51035;DHT22;37062;52.546;13.230;2022-10-18T13:32:27;19.20;99.90
51035;DHT22;37062;52.546;13.230;2022-10-18T13:34:57;19.20;99.90
51035;DHT22;37062;52.546;13.230;2022-10-18T13:37:25;19.20;99.90
51035;DHT22;37062;52.546;13.230;2022-10-18T13:40:21;19.30;99.90
51035;DHT22;37062;52.546;13.230;2022-10-18T13:42:49;19.30;99.90
51035;DHT22;37062;52.546;13.230;2022-10-18T13:45:42;19.20;99.90
51035;DHT22;37062;52.546;13.230;2022-10-18T13:48:44;19.30;99.90
51035;DHT22;37062;52.546;13.230;2022-10-18T13:54:21;19.30;99.90
51035;DHT22;37062;52.546;13.230;2022-10-18T13:57:14;19.30;99.90
51035;DHT22;37062;52.546;13.230;2022-10-18T14:00:01;19.20;99.90
51035;DHT22;37062;52.546;13.230;2022-10-18T14:02:53;19.00;99.90
51035;DHT22;37062;52.546;13.230;2022-10-18T14:05:36;19.00;99.90
51035;DHT22;37062;52.546;13.230;2022-10-18T14:08:15;18.90;99.90
51035;DHT22;37062;52.546;13.230;2022-10-18T14:10:53;18.90;99.90
51035;DHT22;37062;52.546;13.230;2022-10-18T14:13:25;19.00;99.90
51035;DHT22;37062;52.546;13.230;2022-10-18T14:15:58;19.00;99.90
51035;DHT22;37062;52.546;13.230;2022-10-18T14:18:31;19.00;99.90
51035;DHT22;37062;52.546;13.230;2022-10-18T14:21:03;19.10;99.90
51035;DHT22;37062;52.546;13.230;2022-10-18T14:23:35;19.10;99.90
51035;DHT22;37062;52.546;13.230;2022-10-18T14:26:07;19.00;99.90
51035;DHT22;37062;52.546;13.230;2022-10-18T14:28:34;18.90;99.90
51035;DHT22;37062;52.546;13.230;2022-10-18T14:31:04;18.80;99.90
51035;DHT22;37062;52.546;13.230;2022-10-18T14:33:34;18.70;99.90
51035;DHT22;37062;52.546;13.230;2022-10-18T14:36:07;18.60;99.90
51035;DHT22;37062;52.546;13.230;2022-10-18T14:38:43;18.60;99.90
51035;DHT22;37062;52.546;13.230;2022-10-18T14:41:14;18.60;99.90
51035;DHT22;37062;52.546;13.230;2022-10-18T14:43:42;18.60;99.90
51035;DHT22;37062;52.546;13.230;2022-10-18T14:46:18;18.60;99.90
51035;DHT22;37062;52.546;13.230;2022-10-18T14:48:55;18.50;99.90
51035;DHT22;37062;52.546;13.230;2022-10-18T14:51:23;18.40;99.90
51035;DHT22;37062;52.546;13.230;2022-10-18T14:53:52;18.40;99.90
51035;DHT22;37062;52.546;13.230;2022-10-18T14:56:23;18.40;99.90
51035;DHT22;37062;52.546;13.230;2022-10-18T14:58:52;18.30;99.90
51035;DHT22;37062;52.546;13.230;2022-10-18T15:01:23;18.20;99.90
51035;DHT22;37062;52.546;13.230;2022-10-18T15:03:55;18.20;99.90
51035;DHT22;37062;52.546;13.230;2022-10-18T15:06:23;18.10;99.90
51035;DHT22;37062;52.546;13.230;2022-10-18T15:08:55;18.20;99.90
51035;DHT22;37062;52.546;13.230;2022-10-18T15:11:24;18.10;99.90
51035;DHT22;37062;52.546;13.230;2022-10-18T15:13:54;18.10;99.90
51035;DHT22;37062;52.546;13.230;2022-10-18T15:16:25;18.10;99.90
51035;DHT22;37062;52.546;13.230;2022-10-18T15:19:01;18.10;99.90
51035;DHT22;37062;52.546;13.230;2022-10-18T15:21:30;17.90;99.90
51035;DHT22;37062;52.546;13.230;2022-10-18T15:24:25;17.80;99.90
51035;DHT22;37062;52.546;13.230;2022-10-18T15:26:56;17.70;99.90
51035;DHT22;37062;52.546;13.230;2022-10-18T15:29:29;17.60;99.90
51035;DHT22;37062;52.546;13.230;2022-10-18T15:32:06;17.60;99.90
51035;DHT22;37062;52.546;13.230;2022-10-18T15:34:34;17.50;99.90
51035;DHT22;37062;52.546;13.230;2022-10-18T15:37:15;17.40;99.90
51035;DHT22;37062;52.546;13.230;2022-10-18T15:39:44;17.40;99.90
51035;DHT22;37062;52.546;13.230;2022-10-18T15:42:35;17.30;99.90
51035;DHT22;37062;52.546;13.230;2022-10-18T15:45:28;17.30;99.90
51035;DHT22;37062;52.546;13.230;2022-10-18T15:48:01;17.30;99.90
51035;DHT22;37062;52.546;13.230;2022-10-18T15:50:39;17.20;99.90
51035;DHT22;37062;52.546;13.230;2022-10-18T15:53:34;17.20;99.90
51035;DHT22;37062;52.546;13.230;2022-10-18T15:56:06;17.10;99.90
51035;DHT22;37062;52.546;13.230;2022-10-18T15:58:39;17.00;99.90